地図

経路データ

SID SEASON NUMBER BASIN SUBBASIN NAME ISO_TIME NATURE LAT LON WMO_WIND WMO_PRES WMO_AGENCY TRACK_TYPE DIST2LAND LANDFALL IFLAG USA_AGENCY USA_ATCF_ID USA_LAT USA_LON USA_RECORD USA_STATUS USA_WIND USA_PRES USA_SSHS USA_R34_NE USA_R34_SE USA_R34_SW USA_R34_NW USA_R50_NE USA_R50_SE USA_R50_SW USA_R50_NW USA_R64_NE USA_R64_SE USA_R64_SW USA_R64_NW USA_POCI USA_ROCI USA_RMW USA_EYE TOKYO_LAT TOKYO_LON TOKYO_GRADE TOKYO_WIND TOKYO_PRES TOKYO_R50_DIR TOKYO_R50_LONG TOKYO_R50_SHORT TOKYO_R30_DIR TOKYO_R30_LONG TOKYO_R30_SHORT TOKYO_LAND CMA_LAT CMA_LON CMA_CAT CMA_WIND CMA_PRES HKO_LAT HKO_LON HKO_CAT HKO_WIND HKO_PRES NEWDELHI_LAT NEWDELHI_LON NEWDELHI_GRADE NEWDELHI_WIND NEWDELHI_PRES NEWDELHI_CI NEWDELHI_DP NEWDELHI_POCI REUNION_LAT REUNION_LON REUNION_TYPE REUNION_WIND REUNION_PRES REUNION_TNUM REUNION_CI REUNION_RMW REUNION_R34_NE REUNION_R34_SE REUNION_R34_SW REUNION_R34_NW REUNION_R50_NE REUNION_R50_SE REUNION_R50_SW REUNION_R50_NW REUNION_R64_NE REUNION_R64_SE REUNION_R64_SW REUNION_R64_NW BOM_LAT BOM_LON BOM_TYPE BOM_WIND BOM_PRES BOM_TNUM BOM_CI BOM_RMW BOM_R34_NE BOM_R34_SE BOM_R34_SW BOM_R34_NW BOM_R50_NE BOM_R50_SE BOM_R50_SW BOM_R50_NW BOM_R64_NE BOM_R64_SE BOM_R64_SW BOM_R64_NW BOM_ROCI BOM_POCI BOM_EYE BOM_POS_METHOD BOM_PRES_METHOD NADI_LAT NADI_LON NADI_CAT NADI_WIND NADI_PRES WELLINGTON_LAT WELLINGTON_LON WELLINGTON_WIND WELLINGTON_PRES DS824_LAT DS824_LON DS824_STAGE DS824_WIND DS824_PRES TD9636_LAT TD9636_LON TD9636_STAGE TD9636_WIND TD9636_PRES TD9635_LAT TD9635_LON TD9635_WIND TD9635_PRES TD9635_ROCI NEUMANN_LAT NEUMANN_LON NEUMANN_CLASS NEUMANN_WIND NEUMANN_PRES MLC_LAT MLC_LON MLC_CLASS MLC_WIND MLC_PRES USA_GUST BOM_GUST BOM_GUST_PER REUNION_GUST REUNION_GUST_PER USA_SEAHGT USA_SEARAD_NE USA_SEARAD_SE USA_SEARAD_SW USA_SEARAD_NW STORM_SPEED STORM_DIR
1956055S20133 1956 22 SI WA NOT_NAMED 1956-02-24 00:00:00 TS -20.0810 133.391 spur-split 0 0 _________O____ -1 -20.1000 133.400 TC 40 995 4 317
1956055S20133 1956 22 SI WA NOT_NAMED 1956-02-24 03:00:00 TS -19.9342 133.245 spur-split 0 0 _________P____ -1 -19.9639 133.136 TC 4 313
1956055S20133 1956 22 SI WA NOT_NAMED 1956-02-24 06:00:00 TS -19.7952 133.063 spur-split 0 0 _________P____ -1 -19.8273 132.872 TC 5 306
1956055S20133 1956 22 SI WA NOT_NAMED 1956-02-24 09:00:00 TS -19.6617 132.847 spur-split 0 0 _________P____ -1 -19.6904 132.609 TC 5 302
1956055S20133 1956 22 SI WA NOT_NAMED 1956-02-24 11:00:00 TS -19.5744 132.684 spur-split 0 0 _________P____ -1 -19.5989 132.434 TC 5 299
1956055S20133 1956 22 SI WA NOT_NAMED 1956-02-24 12:00:00 TS -19.5311 132.597 spur-split 0 0 _________P____ -1 -19.5530 132.346 TC 6 296
1956055S20133 1956 22 SI WA NOT_NAMED 1956-02-24 15:00:00 TS -19.4010 132.314 spur-split 0 0 _________P____ -1 -19.4153 132.084 TC 6 295
1956055S20133 1956 22 SI WA NOT_NAMED 1956-02-24 18:00:00 TS -19.2689 131.997 spur-split 0 0 _________P____ -1 -19.2772 131.822 TC 7 293
1956055S20133 1956 22 SI WA NOT_NAMED 1956-02-24 21:00:00 TS -19.1323 131.648 spur-split 0 0 _________P____ -1 -19.1388 131.561 TC 7 292
1956055S20133 1956 22 SI WA NOT_NAMED 1956-02-24 23:00:00 TS -19.0353 131.393 spur-split 0 0 _________P____ -1 -19.0463 131.387 TC 8 292
1956055S20133 1956 22 SI WA NOT_NAMED 1956-02-24 23:30:00 TS -19.0088 131.321 998 bom spur-split 0 0 ______O__P____ -1 -19.0000 131.300 998 -19.0232 131.343 TC 9 294
1956055S20133 1956 22 SI WA NOT_NAMED 1956-02-25 00:00:00 TS -18.9749 131.250 spur-split 0 0 ______P__O____ -1 -18.9632 131.215 -19.0000 131.300 TC 35 998 9 298
1956055S20133 1956 22 SI WA NOT_NAMED 1956-02-25 03:00:00 NR -18.7712 130.842 spur-split 0 0 ______P__P____ -1 -18.7420 130.708 -18.8685 130.745 TC 9 298
1956055S20133 1956 22 SI WA NOT_NAMED 1956-02-25 06:00:00 NR -18.5614 130.412 spur-split 0 0 ______P__P____ -1 -18.5220 130.202 -18.7352 130.190 TC 10 297
1956055S20133 1956 22 SI WA NOT_NAMED 1956-02-25 09:00:00 NR -18.3448 129.949 spur-split 0 0 ______P__P____ -1 -18.3053 129.699 -18.6002 129.636 TC 10 296
1956055S20133 1956 22 SI WA NOT_NAMED 1956-02-25 11:00:00 NR -18.1993 129.625 spur-split 0 0 ______P__P____ -1 -18.1639 129.366 -18.5092 129.267 TC 10 295
1956055S20133 1956 22 SI WA NOT_NAMED 1956-02-25 12:00:00 NR -18.1268 129.459 spur-split 0 0 ______P__P____ -1 -18.0943 129.200 -18.4634 129.082 TC 11 294
1956055S20133 1956 22 SI WA NOT_NAMED 1956-02-25 15:00:00 NR -17.9129 128.944 spur-split 0 0 ______P__P____ -1 -17.8912 128.706 -18.3249 128.528 TC 11 293
1956055S20133 1956 22 SI WA NOT_NAMED 1956-02-25 18:00:00 NR -17.7085 128.409 spur-split 0 0 ______P__P____ -1 -17.6982 128.217 -18.1847 127.975 TC 11 291
1956055S20133 1956 22 SI WA NOT_NAMED 1956-02-25 21:00:00 NR -17.5193 127.857 spur-split 0 0 ______P__P____ -1 -17.5176 127.734 -18.0429 127.423 TC 11 289
1956055S20133 1956 22 SI WA NOT_NAMED 1956-02-25 23:00:00 NR -17.4042 127.481 spur-split 0 0 ______P__P____ -1 -17.4052 127.415 -17.9474 127.055 TC 11 287
1956055S20133 1956 22 SI WA NOT_NAMED 1956-02-26 00:00:00 NR -17.3507 127.291 spur-split 0 0 ______P__P____ -1 -17.3517 127.257 -17.8994 126.872 TC 11 286
1956055S20133 1956 22 SI WA NOT_NAMED 1956-02-26 01:00:00 NR -17.3000 127.100 994 bom spur-split 0 0 ______O__P____ -1 -17.3000 127.100 994 -17.8513 126.688 TC 10 287
1956055S20133 1956 22 SI WA NOT_NAMED 1956-02-26 03:00:00 NR -17.2026 126.787 spur-split 0 0 ______P__P____ -1 -17.2026 126.787 -17.7545 126.321 TC 9 287
1956055S20133 1956 22 SI WA NOT_NAMED 1956-02-26 06:00:00 NR -17.0717 126.313 spur-split 0 0 ______P__P____ -1 -17.0717 126.313 -17.6080 125.771 TC 10 285
1956055S20133 1956 22 SI WA NOT_NAMED 1956-02-26 09:00:00 NR -16.9598 125.820 spur-split 0 0 ______P__P____ -1 -16.9598 125.820 -17.4601 125.223 TC 10 282
1956055S20133 1956 22 SI WA NOT_NAMED 1956-02-26 11:00:00 NR -16.8960 125.473 spur-split 0 0 ______P__P____ -1 -16.8960 125.473 -17.3607 124.858 TC 10 280
1956055S20133 1956 22 SI WA NOT_NAMED 1956-02-26 12:00:00 NR -16.8675 125.291 spur-split 0 0 ______P__P____ -1 -16.8675 125.291 -17.3107 124.676 TC 11 278
1956055S20133 1956 22 SI WA NOT_NAMED 1956-02-26 15:00:00 NR -16.7953 124.711 spur-split 0 0 ______P__P____ -1 -16.7953 124.711 -17.1600 124.130 TC 12 276
1956055S20133 1956 22 SI WA NOT_NAMED 1956-02-26 18:00:00 NR -16.7433 124.063 spur-split 0 0 ______P__P____ -1 -16.7433 124.063 -17.0079 123.585 TC 13 274
1956055S20133 1956 22 SI WA NOT_NAMED 1956-02-26 21:00:00 NR -16.7117 123.332 spur-split 21 0 ______P__P____ -1 -16.7117 123.332 -16.8546 123.042 TC 15 272
1956055S20133 1956 22 SI WA NOT_NAMED 1956-02-26 23:00:00 NR -16.7017 122.789 spur-split 0 0 ______P__P____ -1 -16.7017 122.789 -16.7517 122.680 TC 16 271
1956055S20133 1956 22 SI WA NOT_NAMED 1956-02-27 00:00:00 TS -16.7000 122.500 bom spur-split 21 21 ______O__O____ -1 -16.7000 122.500 -16.7000 122.500 TC 16 268
1956055S20133 1956 22 SI WA NOT_NAMED 1956-02-27 01:00:00 TS -16.7168 122.243 980 bom spur-split 39 39 ______O_______ -1 -16.7000 122.200 980 TC 14 262
1956055S20133 1956 22 SI WA NOT_NAMED 1956-02-27 03:00:00 TS -16.7907 121.796 spur-split 62 62 ______________ -1 TC 12 255
1956055S20133 1956 22 SI WA NOT_NAMED 1956-02-27 06:00:00 TS -16.9719 121.223 spur-split 111 111 ______________ -1 TC 11 249
1956055S20133 1956 22 SI WA NOT_NAMED 1956-02-27 09:00:00 TS -17.1998 120.699 spur-split 155 155 ______________ -1 TC 11 243
1956055S20133 1956 22 SI WA NOT_NAMED 1956-02-27 11:00:00 TS -17.3749 120.387 spur-split 181 181 ______________ -1 TC 10 235
1956055S20133 1956 22 SI WA NOT_NAMED 1956-02-27 12:00:00 TS -17.4839 120.282 spur-split 191 191 ______________ -1 TC 9 230
1956055S20133 1956 22 SI WA NOT_NAMED 1956-02-27 15:00:00 TS -17.7775 119.887 spur-split 210 210 ______________ -1 TC 9 230
1956055S20133 1956 22 SI WA NOT_NAMED 1956-02-27 18:00:00 TS -18.0778 119.540 spur-split 214 186 ______________ -1 TC 8 225
1956055S20133 1956 22 SI WA NOT_NAMED 1956-02-27 21:00:00 TS -18.3727 119.257 spur-split 186 ______________ -1 TC 8 222

IBTrACS Databaseについて

本データベースは、米国NOAAが公開する1842年以降の世界の熱帯低気圧のベストトラックデータアーカイブInternational Best Track Archive for Climate Stewardship (IBTrACS)を、ウェブで閲覧しやすい形式に変換したものです。

最終更新日:2021-10-21